createdAt,value
2022-11-09T00:00:11.871Z,11.70
2022-11-09T04:00:18.401Z,12.50
2022-11-09T04:02:46.772Z,12.40
2022-11-09T04:05:15.248Z,12.40
2022-11-09T04:07:48.209Z,12.30
2022-11-09T04:10:15.358Z,12.30
2022-11-09T04:12:42.431Z,12.30
2022-11-09T04:15:10.299Z,12.30
2022-11-09T04:17:37.291Z,12.20
2022-11-09T04:20:07.390Z,12.10
2022-11-09T04:22:34.519Z,12.00
2022-11-09T04:25:01.452Z,12.00
2022-11-09T04:27:29.935Z,12.00
2022-11-09T04:29:56.922Z,11.80
2022-11-09T04:32:23.866Z,11.70
2022-11-09T04:34:50.740Z,11.70
2022-11-09T04:37:18.993Z,11.60
2022-11-09T04:39:45.909Z,11.50
2022-11-09T04:42:12.825Z,11.50
2022-11-09T04:44:39.731Z,11.40
2022-11-09T04:47:06.609Z,11.40
2022-11-09T04:49:33.527Z,11.30
2022-11-09T04:52:00.437Z,11.30
2022-11-09T04:54:28.768Z,11.30
2022-11-09T04:56:55.648Z,11.20
2022-11-09T04:59:22.577Z,11.20
2022-11-09T05:01:49.460Z,11.20
2022-11-09T05:04:16.421Z,11.20
2022-11-09T05:06:43.398Z,11.20
2022-11-09T05:09:10.416Z,11.10
2022-11-09T05:11:38.670Z,11.10
2022-11-09T05:14:05.572Z,11.10
2022-11-09T05:16:32.849Z,11.10
2022-11-09T05:18:59.751Z,11.00
2022-11-09T05:21:27.495Z,11.10
2022-11-09T05:24:00.177Z,11.10
2022-11-09T05:26:29.321Z,11.00
2022-11-09T05:28:59.110Z,11.10
2022-11-09T05:31:26.851Z,11.10
2022-11-09T05:33:54.535Z,11.20
2022-11-09T05:36:21.870Z,11.20
2022-11-09T05:38:49.181Z,11.10
2022-11-09T05:41:16.389Z,11.20
2022-11-09T05:43:44.732Z,11.20
2022-11-09T05:46:13.698Z,11.10
2022-11-09T05:48:40.975Z,11.10
2022-11-09T05:51:09.903Z,11.00
2022-11-09T05:53:40.037Z,11.10
2022-11-09T05:56:11.910Z,11.10
2022-11-09T05:58:38.973Z,11.10
2022-11-09T06:01:07.368Z,11.10
2022-11-09T06:03:36.039Z,11.20
2022-11-09T06:06:08.316Z,11.20
2022-11-09T06:08:35.817Z,11.10
2022-11-09T06:11:05.784Z,11.10
2022-11-09T06:13:33.496Z,11.10
2022-11-09T06:16:01.768Z,11.10
2022-11-09T06:18:30.845Z,11.10
2022-11-09T06:21:01.280Z,11.10
2022-11-09T06:23:29.557Z,11.10
2022-11-09T06:25:58.329Z,11.10
2022-11-09T06:28:25.260Z,11.10
2022-11-09T06:30:52.298Z,11.10
2022-11-09T06:33:19.471Z,11.10
2022-11-09T06:35:46.505Z,11.20
2022-11-09T06:38:14.723Z,11.30
2022-11-09T06:40:41.634Z,11.40
2022-11-09T06:43:09.524Z,11.30
2022-11-09T06:45:36.746Z,11.30
2022-11-09T06:48:04.217Z,11.30
2022-11-09T06:50:32.743Z,11.30
2022-11-09T06:53:00.962Z,11.30
2022-11-09T06:55:30.363Z,11.30
2022-11-09T06:57:58.444Z,11.30
2022-11-09T07:00:26.566Z,11.30
2022-11-09T07:02:53.971Z,11.30
2022-11-09T07:05:20.911Z,11.30
2022-11-09T07:07:47.918Z,11.30
2022-11-09T07:10:15.093Z,11.30
2022-11-09T07:12:43.424Z,11.30
2022-11-09T07:15:11.905Z,11.30
2022-11-09T07:17:40.131Z,11.40
2022-11-09T07:20:08.638Z,11.40
2022-11-09T07:22:39.430Z,11.40
2022-11-09T07:25:07.451Z,11.50
2022-11-09T07:27:34.767Z,11.50
2022-11-09T07:30:04.674Z,11.50
2022-11-09T07:33:06.991Z,11.50
2022-11-09T07:35:20.440Z,11.60
2022-11-09T07:37:47.281Z,11.60
2022-11-09T07:40:14.301Z,11.60
2022-11-09T07:42:41.179Z,11.60
2022-11-09T07:45:11.703Z,11.60
2022-11-09T07:47:38.657Z,11.60
2022-11-09T07:50:06.457Z,11.60
2022-11-09T07:52:33.505Z,11.60
2022-11-09T07:55:00.422Z,11.70
2022-11-09T07:57:27.384Z,11.70
2022-11-09T07:59:54.373Z,11.70
2022-11-09T08:02:22.718Z,11.80
2022-11-09T08:04:49.919Z,11.80
2022-11-09T08:07:16.867Z,11.80
2022-11-09T08:09:43.851Z,11.80
2022-11-09T08:12:10.790Z,11.80
2022-11-09T08:14:37.672Z,11.80
2022-11-09T08:17:04.552Z,11.80
2022-11-09T08:19:32.762Z,11.70
2022-11-09T08:22:00.093Z,11.70
2022-11-09T08:24:27.016Z,11.70
2022-11-09T08:26:53.918Z,11.70
2022-11-09T08:29:20.930Z,11.70
2022-11-09T08:31:49.356Z,11.70
2022-11-09T08:34:16.223Z,11.70
2022-11-09T08:36:44.424Z,11.70
2022-11-09T08:39:11.361Z,11.70
2022-11-09T08:41:38.547Z,11.80
2022-11-09T08:44:05.637Z,11.80
2022-11-09T08:46:37.038Z,11.80
2022-11-09T08:49:06.846Z,11.80
2022-11-09T08:51:33.768Z,11.90
2022-11-09T08:54:02.693Z,11.90
2022-11-09T08:56:29.686Z,11.80
2022-11-09T09:00:09.366Z,11.80
2022-11-09T09:02:36.280Z,11.80
2022-11-09T09:05:03.334Z,11.80
2022-11-09T09:07:30.508Z,11.90
2022-11-09T09:09:58.768Z,11.90
2022-11-09T09:12:25.710Z,11.90
2022-11-09T09:14:52.661Z,11.90
2022-11-09T09:17:19.546Z,12.00
2022-11-09T09:20:08.148Z,11.90
2022-11-09T09:22:35.514Z,12.00
2022-11-09T09:25:04.619Z,12.00
2022-11-09T09:27:31.512Z,12.00
2022-11-09T09:29:58.849Z,12.00
2022-11-09T09:32:26.083Z,12.00
2022-11-09T09:34:52.974Z,12.00
2022-11-09T09:37:19.816Z,12.00
2022-11-09T09:39:46.740Z,12.10
2022-11-09T09:42:18.509Z,12.10
2022-11-09T09:44:51.601Z,12.10
2022-11-09T09:47:24.876Z,12.10
2022-11-09T09:49:56.389Z,12.20
2022-11-09T09:52:31.147Z,12.20
2022-11-09T09:55:03.257Z,12.30
2022-11-09T09:57:35.410Z,12.40
2022-11-09T10:00:07.779Z,12.50
2022-11-09T10:02:38.898Z,12.60
2022-11-09T10:05:09.892Z,12.60
2022-11-09T10:07:42.323Z,12.60
2022-11-09T10:10:30.276Z,12.70
2022-11-09T10:13:20.670Z,12.70
2022-11-09T10:15:53.421Z,12.80
2022-11-09T10:18:34.037Z,12.90
2022-11-09T10:21:14.718Z,12.90
2022-11-09T10:23:56.220Z,13.00
2022-11-09T10:26:27.456Z,13.20
2022-11-09T10:29:17.062Z,13.30
2022-11-09T10:31:46.898Z,13.30
2022-11-09T10:34:18.644Z,13.40
2022-11-09T10:36:51.654Z,13.60
2022-11-09T10:39:21.207Z,13.70
2022-11-09T10:42:09.053Z,13.90
2022-11-09T10:44:56.073Z,14.00
2022-11-09T10:47:49.474Z,14.20
2022-11-09T10:50:38.794Z,14.20
2022-11-09T10:53:26.020Z,14.30
2022-11-09T10:56:20.392Z,14.30
2022-11-09T10:59:36.364Z,14.40
2022-11-09T11:02:43.773Z,14.50
2022-11-09T11:05:31.906Z,14.50
2022-11-09T11:08:27.222Z,14.60
2022-11-09T11:11:39.416Z,14.60
2022-11-09T11:14:31.723Z,14.60
2022-11-09T11:17:25.504Z,14.50
2022-11-09T11:20:30.661Z,14.50
2022-11-09T11:23:18.631Z,14.40
2022-11-09T11:26:34.311Z,14.40
2022-11-09T11:29:36.567Z,14.40
2022-11-09T11:32:24.074Z,14.40
2022-11-09T11:35:14.303Z,14.40
2022-11-09T11:38:12.948Z,14.30
2022-11-09T11:41:08.068Z,14.30
2022-11-09T11:44:02.805Z,14.30
2022-11-09T11:46:58.555Z,14.30
2022-11-09T11:50:10.708Z,14.30
2022-11-09T11:53:08.699Z,14.30
2022-11-09T11:56:18.623Z,14.30
2022-11-09T11:59:26.277Z,14.30
2022-11-09T12:02:31.871Z,14.30
2022-11-09T12:05:39.872Z,14.40
2022-11-09T12:08:35.639Z,14.40
2022-11-09T12:11:31.511Z,14.40
2022-11-09T12:14:26.852Z,14.50
2022-11-09T12:17:20.170Z,14.60
2022-11-09T12:20:23.378Z,14.60
2022-11-09T12:27:49.059Z,14.70
2022-11-09T12:30:50.448Z,14.70
2022-11-09T12:33:44.587Z,14.70
2022-11-09T12:36:37.250Z,14.70
2022-11-09T12:43:16.431Z,14.70
2022-11-09T12:46:05.079Z,14.80
2022-11-09T12:48:50.893Z,14.70
2022-11-09T12:51:37.890Z,14.80
2022-11-09T12:54:24.720Z,14.80
2022-11-09T12:57:13.885Z,14.90
2022-11-09T13:00:01.736Z,14.90
2022-11-09T13:02:54.786Z,14.80
2022-11-09T13:05:40.311Z,14.80
2022-11-09T13:08:31.703Z,14.80
2022-11-09T13:11:22.491Z,14.80
2022-11-09T13:14:33.808Z,14.80
2022-11-09T13:18:01.888Z,14.80
2022-11-09T13:20:56.555Z,14.80
2022-11-09T13:24:04.045Z,14.80
2022-11-09T13:26:58.214Z,14.80
2022-11-09T13:29:56.143Z,14.70
2022-11-09T13:33:21.979Z,14.70
2022-11-09T13:36:21.414Z,14.70
2022-11-09T13:39:30.695Z,14.70
2022-11-09T13:42:32.508Z,14.70
2022-11-09T13:45:30.002Z,14.70
2022-11-09T13:48:48.985Z,14.70
2022-11-09T13:51:44.987Z,14.70
2022-11-09T13:54:32.311Z,14.60
2022-11-09T13:57:18.283Z,14.70
2022-11-09T14:00:05.873Z,14.60
2022-11-09T14:02:58.646Z,14.70
2022-11-09T14:05:44.988Z,14.60
2022-11-09T14:08:40.228Z,14.60
2022-11-09T14:11:54.745Z,14.70
2022-11-09T14:15:07.543Z,14.70
2022-11-09T14:18:13.604Z,14.70
2022-11-09T14:21:08.332Z,14.70
2022-11-09T14:24:01.279Z,14.70
2022-11-09T14:27:04.654Z,14.70
2022-11-09T14:29:53.553Z,14.60
2022-11-09T14:32:39.090Z,14.60
2022-11-09T14:35:28.973Z,14.60
2022-11-09T14:38:18.276Z,14.60
2022-11-09T14:41:17.385Z,14.60
2022-11-09T14:44:02.848Z,14.70
2022-11-09T14:46:53.541Z,14.70
2022-11-09T14:49:40.103Z,14.70
2022-11-09T14:52:29.828Z,14.70
2022-11-09T14:55:17.720Z,14.60
2022-11-09T14:58:04.543Z,14.70
2022-11-09T15:01:06.545Z,14.70
2022-11-09T15:04:11.205Z,14.70
2022-11-09T15:07:00.368Z,14.60
2022-11-09T15:09:48.329Z,14.60
2022-11-09T15:12:34.571Z,14.50
2022-11-09T15:15:25.394Z,14.50
2022-11-09T15:18:19.080Z,14.40
2022-11-09T15:21:17.256Z,14.40
2022-11-09T15:24:14.038Z,14.40
2022-11-09T15:26:59.550Z,14.30
2022-11-09T15:29:45.392Z,14.30
2022-11-09T15:32:37.791Z,14.30
2022-11-09T15:35:24.383Z,14.30
2022-11-09T15:38:29.683Z,14.20
2022-11-09T15:41:17.563Z,14.20
2022-11-09T15:44:03.626Z,14.20
2022-11-09T15:46:50.887Z,14.20
2022-11-09T15:49:38.126Z,14.20
2022-11-09T15:52:23.593Z,14.20
2022-11-09T15:55:12.176Z,14.10
2022-11-09T15:57:57.418Z,14.10
2022-11-09T16:00:43.693Z,14.00
2022-11-09T16:03:29.340Z,14.00
2022-11-09T16:06:19.027Z,13.90
2022-11-09T16:09:04.603Z,13.90
2022-11-09T16:11:50.180Z,13.90
2022-11-09T16:14:36.025Z,13.90
2022-11-09T16:17:21.403Z,13.90
2022-11-09T16:20:07.901Z,13.90
2022-11-09T16:22:54.772Z,13.80
2022-11-09T16:25:40.131Z,13.70
2022-11-09T16:28:25.711Z,13.70
2022-11-09T16:31:12.865Z,13.60
2022-11-09T16:33:58.196Z,13.60
2022-11-09T16:36:50.915Z,13.50
2022-11-09T16:39:39.488Z,13.50
2022-11-09T16:42:26.349Z,13.50
2022-11-09T16:45:14.327Z,13.50
2022-11-09T16:48:01.625Z,13.40
2022-11-09T16:50:48.686Z,13.40
2022-11-09T16:53:34.631Z,13.40
2022-11-09T16:56:21.606Z,13.40
2022-11-09T16:59:06.879Z,13.40
2022-11-09T17:01:53.222Z,13.40
2022-11-09T17:04:38.574Z,13.40
2022-11-09T17:07:23.938Z,13.30
2022-11-09T17:10:10.384Z,13.30
2022-11-09T17:12:57.060Z,13.30
2022-11-09T17:15:43.360Z,13.30
2022-11-09T17:18:28.592Z,13.20
2022-11-09T17:21:14.630Z,13.20
2022-11-09T17:24:00.315Z,13.20
2022-11-09T17:26:45.599Z,13.10
2022-11-09T17:29:32.306Z,13.10
2022-11-09T17:32:17.885Z,13.10
2022-11-09T17:35:03.176Z,13.10
2022-11-09T17:37:48.858Z,13.00
2022-11-09T17:40:34.493Z,13.00
2022-11-09T17:43:20.800Z,12.90
2022-11-09T17:46:09.742Z,12.90
2022-11-09T17:48:55.157Z,12.80
2022-11-09T17:51:41.132Z,12.80
2022-11-09T17:54:33.903Z,12.80
2022-11-09T17:57:22.093Z,12.80
2022-11-09T18:00:10.834Z,12.80
2022-11-09T18:02:57.742Z,12.80
2022-11-09T18:05:44.892Z,12.80
2022-11-09T18:08:30.884Z,12.80
2022-11-09T18:11:17.649Z,12.80
2022-11-09T18:14:03.489Z,12.80
2022-11-09T18:16:49.149Z,12.80
2022-11-09T18:19:36.104Z,12.80
2022-11-09T18:22:21.838Z,12.70
2022-11-09T18:25:07.931Z,12.80
2022-11-09T18:27:53.452Z,12.80
2022-11-09T18:30:41.667Z,12.70
2022-11-09T18:33:27.102Z,12.70
2022-11-09T18:36:16.090Z,12.70
2022-11-09T18:39:03.150Z,12.70
2022-11-09T18:41:48.556Z,12.70
2022-11-09T18:44:33.890Z,12.70
2022-11-09T18:47:20.463Z,12.70
2022-11-09T18:50:07.096Z,12.60
2022-11-09T18:52:54.047Z,12.60
2022-11-09T18:55:39.671Z,12.60
2022-11-09T18:58:25.305Z,12.60
2022-11-09T19:01:10.655Z,12.60
2022-11-09T19:03:59.623Z,12.60
2022-11-09T19:06:45.921Z,12.60
2022-11-09T19:09:38.425Z,12.60
2022-11-09T19:12:24.298Z,12.50
2022-11-09T19:15:10.614Z,12.50
2022-11-09T19:17:55.930Z,12.50
2022-11-09T19:20:41.357Z,12.50
2022-11-09T19:23:32.779Z,12.50
2022-11-09T19:26:21.995Z,12.50
2022-11-09T19:29:08.252Z,12.50
2022-11-09T19:31:54.918Z,12.50
2022-11-09T19:34:42.594Z,12.40
2022-11-09T19:37:28.322Z,12.40
2022-11-09T19:40:14.177Z,12.40
2022-11-09T19:43:00.783Z,12.40
2022-11-09T19:45:46.289Z,12.30
2022-11-09T19:48:33.171Z,12.30
2022-11-09T19:51:18.882Z,12.30
2022-11-09T19:54:05.912Z,12.30
2022-11-09T19:56:51.549Z,12.30
2022-11-09T19:59:38.437Z,12.20
2022-11-09T20:02:24.237Z,12.20
2022-11-09T20:05:10.083Z,12.20
2022-11-09T20:07:55.687Z,12.20
2022-11-09T20:10:41.247Z,12.20
2022-11-09T20:13:26.626Z,12.20
2022-11-09T20:16:13.500Z,12.10
2022-11-09T20:19:00.395Z,12.10
2022-11-09T20:21:46.058Z,12.10
2022-11-09T20:24:31.361Z,12.10
2022-11-09T20:27:17.118Z,12.10
2022-11-09T20:30:02.588Z,12.10
2022-11-09T20:32:49.349Z,12.10
2022-11-09T20:35:35.160Z,12.10
2022-11-09T20:38:21.522Z,12.00
2022-11-09T20:41:10.386Z,12.10
2022-11-09T20:43:55.663Z,12.00
2022-11-09T20:46:41.237Z,12.00
2022-11-09T20:49:28.215Z,12.00
2022-11-09T20:52:13.986Z,12.00
2022-11-09T20:54:59.404Z,12.00
2022-11-09T20:57:45.114Z,12.00
2022-11-09T21:00:31.170Z,12.00
2022-11-09T21:03:16.629Z,12.00
2022-11-09T21:06:05.649Z,12.00
2022-11-09T21:08:53.958Z,12.00
2022-11-09T21:11:59.580Z,12.00
2022-11-09T21:14:45.349Z,12.00
2022-11-09T21:17:30.980Z,12.00
2022-11-09T21:20:17.067Z,12.00
2022-11-09T21:23:13.198Z,12.00
2022-11-09T21:26:19.032Z,12.00
2022-11-09T21:29:23.997Z,12.00
2022-11-09T21:32:11.486Z,12.00
2022-11-09T21:34:56.740Z,12.00
2022-11-09T21:37:42.393Z,12.00
2022-11-09T21:40:29.388Z,12.00
2022-11-09T21:43:15.012Z,12.00
2022-11-09T21:46:00.515Z,12.00
2022-11-09T21:48:46.098Z,12.00
2022-11-09T21:51:31.896Z,12.00
2022-11-09T21:54:17.542Z,11.90
2022-11-09T21:57:04.475Z,11.90
2022-11-09T21:59:49.809Z,11.90
2022-11-09T22:02:35.859Z,11.90
2022-11-09T22:05:23.136Z,11.90
2022-11-09T22:08:09.159Z,11.90
2022-11-09T22:11:03.670Z,11.90
2022-11-09T22:14:09.096Z,11.90
2022-11-09T22:16:54.841Z,11.90
2022-11-09T22:19:59.324Z,11.90
2022-11-09T22:22:45.289Z,11.90
2022-11-09T22:25:30.672Z,11.90
2022-11-09T22:28:16.340Z,11.90
2022-11-09T22:31:04.227Z,11.90
2022-11-09T22:33:49.622Z,11.90
2022-11-09T22:36:35.192Z,11.90
2022-11-09T22:39:20.894Z,11.90
2022-11-09T22:42:06.614Z,11.90
2022-11-09T22:44:51.985Z,11.90
2022-11-09T22:47:39.110Z,11.90
2022-11-09T22:50:24.600Z,11.80
2022-11-09T22:53:10.286Z,11.80
2022-11-09T22:55:57.844Z,11.80
2022-11-09T22:58:45.113Z,11.70
2022-11-09T23:01:30.606Z,11.70
2022-11-09T23:04:17.285Z,11.60
2022-11-09T23:07:02.912Z,11.60
2022-11-09T23:09:48.460Z,11.60
2022-11-09T23:12:34.132Z,11.60
2022-11-09T23:15:19.334Z,11.70
2022-11-09T23:18:23.583Z,11.70
2022-11-09T23:21:10.632Z,11.70
2022-11-09T23:23:58.185Z,11.80
2022-11-09T23:26:44.072Z,11.80
2022-11-09T23:29:29.602Z,11.80
2022-11-09T23:32:15.281Z,11.80
2022-11-09T23:35:01.019Z,11.90
2022-11-09T23:37:47.756Z,11.90
2022-11-09T23:40:34.988Z,11.90
2022-11-09T23:43:21.251Z,11.90
2022-11-09T23:46:10.174Z,11.90
2022-11-09T23:48:55.565Z,12.00
2022-11-09T23:51:41.121Z,12.00
2022-11-09T23:54:28.071Z,12.00
2022-11-09T23:57:13.875Z,12.10
2022-11-09T23:59:59.180Z,12.00
